Time;durP1;ratioP1;P1;durP2;ratioP2;P2;SDS_P1;SDS_P2;PMS_P1;PMS_P2;Temp;Humidity;BMP_temperature;BMP_pressure;BME280_temperature;BME280_humidity;BME280_pressure;Samples;Min_cycle;Max_cycle;Signal;HPM_P1;HPM_P2
2023/02/24 00:07:47;;;;;;;;;;;;;;;;;;;;;
2023/02/24 00:40:10;;;;;;;64.15;24.00;;;12.90;89.00;;;;;;7443760;19;20568;-82
2023/02/24 00:42:50;;;;;;;57.30;23.05;;;12.90;89.40;;;;;;7318089;19;2004343;-84
2023/02/24 00:45:19;;;;;;;70.32;23.60;;;12.90;89.30;;;;;;7445821;19;20321;-83
2023/02/24 00:48:05;;;;;;;66.88;24.05;;;12.90;89.10;;;;;;7419828;19;20030;-83
2023/02/24 00:50:43;;;;;;;64.30;24.98;;;12.90;89.40;;;;;;7420852;19;20009;-83
2023/02/24 00:53:19;;;;;;;69.10;27.48;;;12.80;89.30;;;;;;7419901;19;20037;-83
2023/02/24 00:56:05;;;;;;;59.75;24.60;;;12.90;89.60;;;;;;7418558;19;20019;-82
2023/02/24 00:58:43;;;;;;;67.53;25.92;;;12.80;89.60;;;;;;7420279;19;20006;-83
2023/02/24 01:04:27;;;;;;;70.77;25.33;;;12.90;89.70;;;;;;7420024;19;20043;-83
2023/02/24 01:07:12;;;;;;;69.15;26.15;;;12.90;89.50;;;;;;7421499;19;20015;-83
2023/02/24 01:10:07;;;;;;;68.47;26.23;;;12.90;89.50;;;;;;7417619;19;20018;-82
2023/02/24 01:13:05;;;;;;;73.75;26.73;;;12.90;89.70;;;;;;7433965;19;20557;-82
2023/02/24 01:16:07;;;;;;;74.85;28.20;;;12.90;89.80;;;;;;7440847;19;20014;-83
2023/02/24 01:18:58;;;;;;;72.35;29.02;;;12.80;89.70;;;;;;7317101;19;2004388;-83
2023/02/24 01:28:03;;;;;;;88.57;30.52;;;12.80;90.00;;;;;;7436879;19;20016;-83
2023/02/24 01:30:56;;;;;;;74.53;28.50;;;12.80;90.00;;;;;;7316260;19;2004214;-83
2023/02/24 01:33:54;;;;;;;73.45;28.30;;;12.80;90.10;;;;;;7441243;19;20031;-83
2023/02/24 01:36:27;;;;;;;76.22;29.38;;;12.70;90.00;;;;;;7397298;19;20320;-83
2023/02/24 01:39:09;;;;;;;81.85;29.95;;;12.70;89.90;;;;;;7426828;19;20006;-81
2023/02/24 01:41:52;;;;;;;82.88;30.05;;;12.80;90.00;;;;;;7392773;19;20010;-82
2023/02/24 01:44:52;;;;;;;84.18;30.52;;;12.80;90.00;;;;;;7394139;19;20062;-82
2023/02/24 01:47:27;;;;;;;79.97;30.80;;;12.80;90.00;;;;;;7390983;19;20078;-82
2023/02/24 01:50:05;;;;;;;85.50;30.90;;;12.80;90.00;;;;;;7388938;19;20007;-82
2023/02/24 01:52:39;;;;;;;91.28;31.15;;;12.90;90.00;;;;;;7388293;19;20019;-82
2023/02/24 01:55:31;;;;;;;81.10;30.98;;;12.80;90.00;;;;;;7392986;19;20014;-83
2023/02/24 01:58:37;;;;;;;86.82;30.88;;;12.80;90.00;;;;;;7390605;19;20046;-83
2023/02/24 02:01:28;;;;;;;88.00;30.63;;;12.80;90.00;;;;;;7387432;19;20015;-83
2023/02/24 02:04:26;;;;;;;85.28;31.33;;;12.80;90.00;;;;;;7387899;19;20059;-83
2023/02/24 02:10:27;;;;;;;82.60;32.33;;;12.80;90.00;;;;;;7388550;19;20105;-83
2023/02/24 02:13:03;;;;;;;92.05;33.83;;;12.80;90.00;;;;;;7387535;19;20021;-82
2023/02/24 02:15:35;;;;;;;95.05;33.03;;;12.80;90.00;;;;;;7411165;19;20363;-83
2023/02/24 02:18:12;;;;;;;95.50;35.05;;;12.70;90.20;;;;;;7387810;19;20019;-82
2023/02/24 02:21:34;;;;;;;87.20;33.03;;;12.60;90.10;;;;;;7386888;19;20028;-83
2023/02/24 02:28:30;;;;;;;91.97;32.35;;;12.60;90.30;;;;;;7382981;19;20006;-82
2023/02/24 02:32:01;;;;;;;;;;;;;;;;;;;;;
2023/02/24 02:35:05;;;;;;;101.68;33.47;;;12.70;90.20;;;;;;7388386;19;20351;-83
2023/02/24 02:52:12;;;;;;;104.07;34.90;;;12.70;90.10;;;;;;6432010;19;6859781;-85
2023/02/24 02:55:03;;;;;;;94.60;34.10;;;12.60;90.30;;;;;;7318876;19;2004254;-82
2023/02/24 03:00:41;;;;;;;90.65;33.85;;;12.60;90.20;;;;;;7417009;19;20031;-82
2023/02/24 03:10:16;;;;;;;;;;;;;;;;;;;;;
2023/02/24 03:29:41;;;;;;;109.47;34.40;;;12.30;91.10;;;;;;7213513;19;3058494;-81
2023/02/24 03:32:24;;;;;;;98.60;36.83;;;12.70;90.90;;;;;;7421995;19;20358;-82
2023/02/24 03:34:58;;;;;;;107.30;37.15;;;12.60;91.00;;;;;;7421324;19;20030;-83
2023/02/24 03:37:33;;;;;;;104.80;38.10;;;12.60;91.00;;;;;;7418284;19;20013;-81
2023/02/24 03:40:10;;;;;;;99.18;37.53;;;12.60;91.10;;;;;;7417672;19;20010;-82
2023/02/24 03:42:52;;;;;;;106.45;38.55;;;12.50;91.10;;;;;;7418585;19;20023;-81
2023/02/24 03:45:26;;;;;;;100.45;37.08;;;12.50;91.10;;;;;;7444461;19;20035;-83
2023/02/24 03:47:57;;;;;;;96.72;36.00;;;12.60;91.10;;;;;;7422602;19;20013;-82
2023/02/24 03:50:30;;;;;;;91.28;36.13;;;12.60;91.00;;;;;;7419935;19;20013;-83
2023/02/24 03:53:16;;;;;;;92.35;36.28;;;12.60;91.00;;;;;;7418447;19;20006;-84
2023/02/24 03:56:04;;;;;;;87.25;35.28;;;12.60;91.00;;;;;;7417985;19;20010;-83
2023/02/24 04:08:49;;;;;;;96.22;36.10;;;12.50;91.30;;;;;;7393264;19;20014;-83
2023/02/24 04:11:28;;;;;;;95.63;36.38;;;12.60;91.70;;;;;;7435436;19;20033;-82
2023/02/24 04:14:13;;;;;;;95.85;36.72;;;12.60;91.70;;;;;;7415014;19;20019;-82
2023/02/24 04:16:52;;;;;;;100.30;36.88;;;12.60;91.30;;;;;;7415877;19;20054;-83
2023/02/24 04:19:48;;;;;;;91.97;36.00;;;12.60;91.30;;;;;;7415010;19;20104;-83
2023/02/24 04:22:23;;;;;;;103.35;36.38;;;12.60;91.40;;;;;;7414897;19;20010;-83
2023/02/24 04:25:18;;;;;;;101.88;36.95;;;12.70;91.30;;;;;;7414734;19;20023;-83
2023/02/24 04:31:20;;;;;;;95.63;35.65;;;12.70;91.20;;;;;;7388368;19;20016;-82
2023/02/24 04:34:01;;;;;;;95.45;35.55;;;12.80;91.20;;;;;;7386103;19;20230;-83
2023/02/24 04:40:24;;;;;;;102.32;36.45;;;12.80;91.00;;;;;;7286931;19;2004350;-82
2023/02/24 04:46:16;;;;;;;;;;;;;;;;;;;;;
2023/02/24 04:52:14;;;;;;;90.07;35.85;;;12.80;90.90;;;;;;7385885;19;20016;-82
2023/02/24 04:58:04;;;;;;;81.82;34.47;;;12.90;90.80;;;;;;7397216;19;19998;-82
2023/02/24 05:00:52;;;;;;;91.93;34.42;;;12.90;90.80;;;;;;7405768;19;20018;-84
2023/02/24 05:04:02;;;;;;;94.97;34.70;;;12.80;90.70;;;;;;7386712;19;20006;-82
2023/02/24 05:07:01;;;;;;;;;;;;;;;;;;;;;
2023/02/24 05:10:17;;;;;;;85.25;33.42;;;12.90;90.60;;;;;;7282716;19;2020510;-82
2023/02/24 05:13:20;;;;;;;93.72;35.45;;;12.80;90.60;;;;;;7384845;19;20014;-81
2023/02/24 05:16:11;;;;;;;79.60;32.95;;;12.80;90.60;;;;;;7382891;19;20007;-81
2023/02/24 05:31:34;;;;;;;;;;;;;;;;;;;;;
2023/02/24 05:37:59;;;;;;;81.70;32.58;;;12.80;90.50;;;;;;7415544;19;20013;-82
2023/02/24 05:48:19;;;;;;;82.53;31.63;;;12.80;90.60;;;;;;7414676;19;20012;-82
2023/02/24 06:42:30;;;;;;;;;;;;;;;;;;;;;
2023/02/24 06:55:48;;;;;;;;;;;;;;;;;;;;;
2023/02/24 07:02:09;;;;;;;90.00;39.38;;;12.10;91.70;;;;;;6951081;19;9520677;-82
2023/02/24 07:11:07;;;;;;;95.50;39.08;;;12.20;91.70;;;;;;7419085;19;20007;-82
2023/02/24 07:20:26;;;;;;;87.43;36.53;;;12.10;91.30;;;;;;7417402;19;20005;-82
2023/02/24 07:23:21;;;;;;;90.53;36.40;;;12.10;91.20;;;;;;7419461;19;20011;-82
2023/02/24 07:26:30;;;;;;;89.50;37.10;;;11.90;91.10;;;;;;7420134;19;20056;-81
2023/02/24 07:29:11;;;;;;;90.55;38.97;;;11.80;91.20;;;;;;7423022;19;20003;-81
2023/02/24 07:31:46;;;;;;;93.80;38.25;;;11.90;91.30;;;;;;7420346;19;20010;-82
2023/02/24 07:34:23;;;;;;;87.85;37.63;;;11.70;91.20;;;;;;7418427;19;20037;-82
2023/02/24 07:37:06;;;;;;;89.80;34.83;;;11.50;91.30;;;;;;7418137;19;20007;-82
2023/02/24 07:45:13;;;;;;;88.45;34.88;;;11.50;91.70;;;;;;7439350;19;20235;-80
2023/02/24 08:05:29;;;;;;;83.90;33.20;;;11.80;91.00;;;;;;7379540;19;20002;-84
2023/02/24 09:54:38;;;;;;;74.72;29.13;;;12.20;87.00;;;;;;7383050;19;20015;-81
2023/02/24 09:57:36;;;;;;;75.28;27.75;;;12.20;87.60;;;;;;7383246;19;20010;-81
2023/02/24 10:28:13;;;;;;;71.27;25.80;;;12.20;85.90;;;;;;7382116;19;19991;-85
